createdAt,value
2023-05-08T00:01:24.683Z,95629.28
2023-05-08T00:03:52.377Z,95636.25
2023-05-08T00:06:19.457Z,95631.81
2023-05-08T00:08:46.123Z,95637.97
2023-05-08T00:11:12.887Z,95636.75
2023-05-08T00:13:39.563Z,95640.97
2023-05-08T00:16:06.479Z,95640.53
2023-05-08T00:18:33.086Z,95641.66
2023-05-08T00:20:59.696Z,95643.19
2023-05-08T00:23:26.322Z,95644.66
2023-05-08T00:25:53.016Z,95645.00
2023-05-08T00:28:19.714Z,95643.75
2023-05-08T00:30:46.429Z,95651.09
2023-05-08T00:33:13.043Z,95647.91
2023-05-08T00:35:39.771Z,95648.25
2023-05-08T00:38:06.480Z,95641.50
2023-05-08T00:40:33.191Z,95644.59
2023-05-08T00:42:59.811Z,95647.69
2023-05-08T00:45:33.320Z,95645.63
2023-05-08T00:48:00.307Z,95649.50
2023-05-08T00:50:27.122Z,95645.16
2023-05-08T00:52:54.454Z,95646.78
2023-05-08T00:55:21.298Z,95639.59
2023-05-08T00:57:48.181Z,95641.50
2023-05-08T01:00:18.548Z,95645.41
2023-05-08T01:02:46.585Z,95645.41
2023-05-08T01:05:13.251Z,95646.66
2023-05-08T01:07:40.062Z,95646.09
2023-05-08T01:10:07.263Z,95647.34
2023-05-08T01:12:51.827Z,95646.88
2023-05-08T01:15:35.219Z,95653.50
2023-05-08T01:18:15.626Z,95651.09
2023-05-08T01:20:48.829Z,95656.13
2023-05-08T01:23:34.443Z,95656.81
2023-05-08T01:26:19.635Z,95652.47
2023-05-08T01:29:13.267Z,95660.59
2023-05-08T01:32:10.540Z,95661.28
2023-05-08T01:34:43.275Z,95665.53
2023-05-08T01:37:15.134Z,95663.91
2023-05-08T01:39:51.157Z,95664.25
2023-05-08T01:42:26.267Z,95672.81
2023-05-08T01:45:07.716Z,95671.88
2023-05-08T01:47:37.940Z,95669.16
2023-05-08T01:50:14.129Z,95679.66
2023-05-08T01:52:46.720Z,95678.03
2023-05-08T01:55:20.751Z,95679.56
2023-05-08T01:57:51.962Z,95673.63
2023-05-08T02:00:21.226Z,95684.91
2023-05-08T02:02:49.722Z,95682.53
2023-05-08T02:05:18.282Z,95687.53
2023-05-08T02:07:49.168Z,95689.03
2023-05-08T02:10:17.431Z,95687.75
2023-05-08T02:12:47.734Z,95682.63
2023-05-08T02:15:16.466Z,95681.03
2023-05-08T02:17:46.227Z,95677.84
2023-05-08T02:20:14.733Z,95688.78
2023-05-08T02:22:48.486Z,95686.88
2023-05-08T02:25:16.102Z,95686.72
2023-05-08T02:27:45.768Z,95685.50
2023-05-08T02:30:14.677Z,95693.22
2023-05-08T02:32:44.508Z,95690.81
2023-05-08T02:35:16.813Z,95694.72
2023-05-08T02:37:46.742Z,95685.25
2023-05-08T02:40:15.083Z,95689.91
2023-05-08T02:42:41.968Z,95698.56
2023-05-08T02:45:10.180Z,95686.59
2023-05-08T02:47:44.075Z,95700.75
2023-05-08T02:50:19.544Z,95703.50
2023-05-08T02:52:52.564Z,95701.09
2023-05-08T02:55:28.296Z,95705.41
2023-05-08T02:58:17.072Z,95705.41
2023-05-08T03:00:50.995Z,95703.81
2023-05-08T03:03:27.446Z,95703.81
2023-05-08T03:05:57.765Z,95708.13
2023-05-08T03:08:30.541Z,95704.16
2023-05-08T03:11:01.286Z,95710.41
2023-05-08T03:13:31.604Z,95706.91
2023-05-08T03:16:01.551Z,95708.81
2023-05-08T03:18:36.885Z,95699.47
2023-05-08T03:21:05.564Z,95706.09
2023-05-08T03:23:36.146Z,95706.41
2023-05-08T03:26:03.373Z,95707.56
2023-05-08T03:28:31.284Z,95703.25
2023-05-08T03:31:00.794Z,95707.91
2023-05-08T03:33:29.509Z,95708.72
2023-05-08T03:35:57.955Z,95705.84
2023-05-08T03:38:24.962Z,95705.03
2023-05-08T03:40:53.443Z,95718.25
2023-05-08T03:43:21.548Z,95719.88
2023-05-08T03:45:48.706Z,95718.25
2023-05-08T03:48:16.884Z,95722.13
2023-05-08T03:50:44.381Z,95717.47
2023-05-08T03:53:10.966Z,95724.84
2023-05-08T03:55:37.816Z,95719.38
2023-05-08T03:58:22.424Z,95726.69
2023-05-08T04:00:48.922Z,95718.03
2023-05-08T04:03:23.965Z,95728.03
2023-05-08T04:06:00.723Z,95724.19
2023-05-08T04:08:32.482Z,95728.50
2023-05-08T04:11:09.932Z,95737.50
2023-05-08T04:13:49.002Z,95731.09
2023-05-08T04:16:27.886Z,95736.47
2023-05-08T04:19:01.591Z,95740.31
2023-05-08T04:21:32.518Z,95739.19
2023-05-08T04:23:59.648Z,95745.00
2023-05-08T04:26:28.315Z,95748.41
2023-05-08T04:28:57.562Z,95741.63
2023-05-08T04:31:24.877Z,95750.16
2023-05-08T04:33:51.909Z,95754.84
2023-05-08T04:36:18.649Z,95752.44
2023-05-08T04:38:45.843Z,95754.72
2023-05-08T04:41:13.148Z,95756.97
2023-05-08T04:43:40.423Z,95753.13
2023-05-08T04:46:07.983Z,95765.66
2023-05-08T04:48:34.673Z,95755.06
2023-05-08T04:51:01.721Z,95766.78
2023-05-08T04:53:28.642Z,95757.47
2023-05-08T04:55:55.218Z,95766.44
2023-05-08T04:58:21.968Z,95769.63
2023-05-08T05:00:49.089Z,95770.56
2023-05-08T05:03:15.866Z,95774.59
2023-05-08T05:05:43.098Z,95777.00
2023-05-08T05:08:09.983Z,95773.91
2023-05-08T05:10:38.683Z,95781.44
2023-05-08T05:13:05.423Z,95775.97
2023-05-08T05:15:32.832Z,95777.56
2023-05-08T05:17:59.639Z,95783.38
2023-05-08T05:20:26.337Z,95783.50
2023-05-08T05:22:53.501Z,95791.69
2023-05-08T05:25:20.161Z,95793.31
2023-05-08T05:27:47.013Z,95794.44
2023-05-08T05:30:14.061Z,95804.69
2023-05-08T05:32:41.166Z,95800.72
2023-05-08T05:35:09.924Z,95800.25
2023-05-08T05:37:36.840Z,95800.56
2023-05-08T05:40:04.145Z,95807.97
2023-05-08T05:42:32.726Z,95805.25
2023-05-08T05:44:59.469Z,95813.44
2023-05-08T05:47:26.291Z,95809.25
2023-05-08T05:49:53.066Z,95808.94
2023-05-08T05:52:19.912Z,95809.25
2023-05-08T05:54:46.714Z,95812.31
2023-05-08T05:57:13.499Z,95806.03
2023-05-08T05:59:41.265Z,95814.25
2023-05-08T06:02:08.542Z,95811.84
2023-05-08T06:04:35.515Z,95809.94
2023-05-08T06:07:02.320Z,95807.66
2023-05-08T06:09:28.895Z,95806.84
2023-05-08T06:11:55.679Z,95818.25
2023-05-08T06:14:22.333Z,95817.25
2023-05-08T06:16:49.084Z,95815.78
2023-05-08T06:19:15.873Z,95822.03
2023-05-08T06:21:42.766Z,95823.16
2023-05-08T06:24:09.436Z,95815.09
2023-05-08T06:26:36.003Z,95824.56
2023-05-08T06:29:02.656Z,95821.59
2023-05-08T06:31:29.350Z,95826.06
2023-05-08T06:33:56.163Z,95820.75
2023-05-08T06:36:22.759Z,95825.31
2023-05-08T06:38:49.442Z,95821.91
2023-05-08T06:41:16.061Z,95828.28
2023-05-08T06:43:42.640Z,95826.50
2023-05-08T06:46:09.759Z,95828.31
2023-05-08T06:48:36.426Z,95830.03
2023-05-08T06:51:03.177Z,95833.34
2023-05-08T06:53:29.866Z,95829.84
2023-05-08T06:55:56.472Z,95837.47
2023-05-08T06:58:23.187Z,95838.84
2023-05-08T07:00:49.940Z,95838.63
2023-05-08T07:03:17.043Z,95841.16
2023-05-08T07:05:43.579Z,95840.97
2023-05-08T07:08:10.306Z,95848.25
2023-05-08T07:10:36.969Z,95850.53
2023-05-08T07:13:03.592Z,95838.66
2023-05-08T07:15:32.223Z,95848.22
2023-05-08T07:17:58.914Z,95844.59
2023-05-08T07:20:25.862Z,95843.66
2023-05-08T07:22:52.543Z,95848.09
2023-05-08T07:25:19.253Z,95844.09
2023-05-08T07:27:45.996Z,95851.81
2023-05-08T07:30:13.023Z,95841.88
2023-05-08T07:32:39.849Z,95840.81
2023-05-08T07:35:09.651Z,95853.16
2023-05-08T07:37:36.993Z,95844.78
2023-05-08T07:40:03.803Z,95841.00
2023-05-08T07:42:30.581Z,95841.47
2023-05-08T07:44:57.303Z,95844.41
2023-05-08T07:47:23.921Z,95852.38
2023-05-08T07:49:50.860Z,95851.31
2023-05-08T07:52:17.448Z,95850.28
2023-05-08T07:54:44.179Z,95847.28
2023-05-08T07:57:10.852Z,95846.03
2023-05-08T07:59:37.404Z,95849.31
2023-05-08T08:02:04.083Z,95844.31
2023-05-08T08:04:30.881Z,95850.66
2023-05-08T08:06:57.539Z,95854.56
2023-05-08T08:09:24.294Z,95851.44
2023-05-08T08:11:50.826Z,95843.13
2023-05-08T08:14:17.515Z,95850.66
2023-05-08T08:16:44.139Z,95849.88
2023-05-08T08:19:10.759Z,95847.66
2023-05-08T08:21:42.434Z,95842.16
2023-05-08T08:24:09.530Z,95854.47
2023-05-08T08:26:36.154Z,95849.47
2023-05-08T08:29:02.812Z,95851.13
2023-05-08T08:31:29.764Z,95848.50
2023-05-08T08:33:56.425Z,95845.03
2023-05-08T08:36:23.257Z,95852.31
2023-05-08T08:38:49.970Z,95850.91
2023-05-08T08:41:16.658Z,95849.13
2023-05-08T08:43:43.291Z,95849.69
2023-05-08T08:46:14.353Z,95854.91
2023-05-08T08:48:46.190Z,95850.72
2023-05-08T08:51:24.610Z,95852.50
2023-05-08T08:54:00.939Z,95855.06
2023-05-08T08:56:28.264Z,95850.91
2023-05-08T08:58:57.366Z,95852.56
2023-05-08T09:01:24.891Z,95852.38
2023-05-08T09:03:51.592Z,95853.25
2023-05-08T09:06:19.760Z,95849.44
2023-05-08T09:08:47.324Z,95855.16
2023-05-08T09:11:14.181Z,95848.69
2023-05-08T09:13:40.807Z,95858.75
2023-05-08T09:16:07.695Z,95856.25
2023-05-08T09:18:34.389Z,95850.53
2023-05-08T09:21:01.562Z,95847.63
2023-05-08T09:23:28.128Z,95847.44
2023-05-08T09:25:54.849Z,95850.25
2023-05-08T09:28:23.553Z,95844.06
2023-05-08T09:30:52.045Z,95839.44
2023-05-08T09:33:19.694Z,95841.53
2023-05-08T09:35:46.690Z,95853.84
2023-05-08T09:38:32.005Z,95849.91
2023-05-08T09:41:25.006Z,95857.16
2023-05-08T09:44:05.584Z,95852.91
2023-05-08T09:46:33.337Z,95856.72
2023-05-08T09:49:01.801Z,95859.63
2023-05-08T09:51:30.439Z,95861.97
2023-05-08T09:53:58.849Z,95850.22
2023-05-08T09:56:36.005Z,95863.94
2023-05-08T09:59:04.509Z,95864.66
2023-05-08T10:01:33.787Z,95860.97
2023-05-08T10:04:00.921Z,95856.53
2023-05-08T10:06:28.710Z,95851.72
2023-05-08T10:09:08.234Z,95849.63
2023-05-08T10:11:35.047Z,95857.53
2023-05-08T10:14:01.683Z,95857.28
2023-05-08T10:16:30.297Z,95857.88
2023-05-08T10:19:01.383Z,95854.06
2023-05-08T10:21:29.521Z,95860.81
2023-05-08T10:24:01.200Z,95853.25
2023-05-08T10:26:31.573Z,95853.88
2023-05-08T10:29:01.548Z,95847.03
2023-05-08T10:31:29.088Z,95849.44
2023-05-08T10:33:56.542Z,95845.03
2023-05-08T10:36:26.233Z,95848.09
2023-05-08T10:38:54.020Z,95842.94
2023-05-08T10:41:21.176Z,95839.44
2023-05-08T10:43:49.453Z,95837.13
2023-05-08T10:46:29.232Z,95830.88
2023-05-08T10:49:22.165Z,95832.34
2023-05-08T10:52:10.527Z,95824.19
2023-05-08T10:54:51.925Z,95824.31
2023-05-08T10:57:18.575Z,95823.69
2023-05-08T10:59:46.804Z,95817.88
2023-05-08T11:02:14.138Z,95819.25
2023-05-08T11:04:41.000Z,95824.13
2023-05-08T11:07:07.933Z,95819.09
2023-05-08T11:09:43.463Z,95823.59
2023-05-08T11:12:21.981Z,95822.47
2023-05-08T11:15:03.112Z,95825.78
2023-05-08T11:17:29.772Z,95817.78
2023-05-08T11:20:01.905Z,95816.00
2023-05-08T11:22:36.028Z,95824.66
2023-05-08T11:25:06.076Z,95820.75
2023-05-08T11:28:04.245Z,95823.50
2023-05-08T11:30:33.426Z,95817.25
2023-05-08T11:33:06.036Z,95816.13
2023-05-08T11:35:47.948Z,95822.44
2023-05-08T11:38:22.004Z,95806.63
2023-05-08T11:40:54.761Z,95810.31
2023-05-08T11:43:33.093Z,95806.81
2023-05-08T11:46:01.901Z,95806.09
2023-05-08T11:48:28.662Z,95802.28
2023-05-08T11:50:55.941Z,95801.59
2023-05-08T11:53:23.057Z,95799.94
2023-05-08T11:55:50.550Z,95802.75
2023-05-08T11:58:17.228Z,95804.84
2023-05-08T12:00:45.458Z,95805.72
2023-05-08T12:03:17.371Z,95805.72
2023-05-08T12:05:44.875Z,95802.59
2023-05-08T12:08:13.087Z,95820.00
2023-05-08T12:11:00.214Z,95813.34
2023-05-08T12:13:29.294Z,95805.94
2023-05-08T12:16:00.876Z,95807.56
2023-05-08T12:18:28.744Z,95811.19
2023-05-08T12:21:01.419Z,95807.56
2023-05-08T12:23:31.492Z,95810.56
2023-05-08T12:26:02.008Z,95813.00
2023-05-08T12:28:29.049Z,95810.31
2023-05-08T12:30:56.444Z,95809.97
2023-05-08T12:33:24.121Z,95812.00
2023-05-08T12:35:51.041Z,95802.53
2023-05-08T12:38:17.667Z,95800.19
2023-05-08T12:40:46.344Z,95805.75
2023-05-08T12:43:13.403Z,95805.81
2023-05-08T12:45:42.143Z,95803.06
2023-05-08T12:48:13.715Z,95803.47
2023-05-08T12:50:42.557Z,95809.41
2023-05-08T12:53:14.165Z,95801.94
2023-05-08T12:55:53.603Z,95793.25
2023-05-08T12:58:24.308Z,95801.94
2023-05-08T13:00:52.524Z,95803.88
2023-05-08T13:03:25.138Z,95805.81
2023-05-08T13:05:53.023Z,95804.22
2023-05-08T13:08:20.140Z,95797.91
2023-05-08T13:10:51.985Z,95799.53
2023-05-08T13:13:20.614Z,95791.66
2023-05-08T13:15:48.786Z,95795.19
2023-05-08T13:18:16.851Z,95796.28
2023-05-08T13:20:44.265Z,95793.13
2023-05-08T13:23:11.146Z,95799.00
2023-05-08T13:25:38.751Z,95798.19
2023-05-08T13:28:06.175Z,95797.41
2023-05-08T13:30:33.493Z,95795.03
2023-05-08T13:33:00.522Z,95797.03
2023-05-08T13:35:27.442Z,95790.78
2023-05-08T13:37:58.105Z,95794.69
2023-05-08T13:40:25.180Z,95790.00
2023-05-08T13:42:52.159Z,95786.09
2023-05-08T13:45:19.362Z,95784.53
2023-05-08T13:47:47.137Z,95780.47
2023-05-08T13:50:16.208Z,95789.47
2023-05-08T13:52:43.224Z,95777.06
2023-05-08T13:55:12.078Z,95786.50
2023-05-08T13:57:39.337Z,95792.00
2023-05-08T14:00:07.411Z,95779.28
2023-05-08T14:02:33.989Z,95782.31
2023-05-08T14:05:00.690Z,95789.91
2023-05-08T14:07:27.360Z,95784.41
2023-05-08T14:09:54.322Z,95786.66
2023-05-08T14:12:21.283Z,95792.41
2023-05-08T14:14:47.872Z,95784.41
2023-05-08T14:17:14.576Z,95785.97
2023-05-08T14:19:41.156Z,95784.34
2023-05-08T14:22:07.720Z,95775.72
2023-05-08T14:24:34.411Z,95785.63
2023-05-08T14:27:01.164Z,95786.06
2023-05-08T14:29:27.766Z,95788.91
2023-05-08T14:31:54.445Z,95791.34
2023-05-08T14:34:21.212Z,95782.72
2023-05-08T14:36:47.863Z,95781.56
2023-05-08T14:39:14.478Z,95781.19
2023-05-08T14:41:42.100Z,95786.72
2023-05-08T14:44:14.664Z,95789.88
2023-05-08T14:46:41.285Z,95782.34
2023-05-08T14:49:08.038Z,95780.31
2023-05-08T14:51:34.721Z,95779.13
2023-05-08T14:54:01.549Z,95778.34
2023-05-08T14:56:30.322Z,95778.28
2023-05-08T14:59:01.387Z,95777.09
2023-05-08T15:01:28.102Z,95780.22
2023-05-08T15:03:54.815Z,95777.75
2023-05-08T15:06:22.922Z,95784.78
2023-05-08T15:08:49.678Z,95789.47
2023-05-08T15:11:16.327Z,95786.97
2023-05-08T15:13:42.924Z,95787.28
2023-05-08T15:16:09.787Z,95785.63
2023-05-08T15:18:36.651Z,95789.91
2023-05-08T15:21:03.366Z,95783.97
2023-05-08T15:23:30.009Z,95789.75
2023-05-08T15:25:56.703Z,95783.81
2023-05-08T15:28:23.376Z,95790.09
2023-05-08T15:30:49.949Z,95796.78
2023-05-08T15:33:16.500Z,95791.66
2023-05-08T15:35:43.077Z,95792.00
2023-05-08T15:38:09.655Z,95791.56
2023-05-08T15:40:36.308Z,95787.25
2023-05-08T15:43:02.914Z,95788.34
2023-05-08T15:45:29.639Z,95799.69
2023-05-08T15:47:56.413Z,95787.41
2023-05-08T15:50:23.070Z,95792.44
2023-05-08T15:52:49.963Z,95797.91
2023-05-08T15:55:16.637Z,95791.91
2023-05-08T15:57:43.340Z,95795.38
2023-05-08T16:00:10.593Z,95787.06
2023-05-08T16:02:37.299Z,95792.53
2023-05-08T16:05:04.028Z,95787.75
2023-05-08T16:07:30.595Z,95791.66
2023-05-08T16:09:57.195Z,95786.53
2023-05-08T16:12:23.786Z,95784.59
2023-05-08T16:14:50.390Z,95793.66
2023-05-08T16:17:17.132Z,95797.19
2023-05-08T16:19:43.772Z,95786.97
2023-05-08T16:22:10.341Z,95790.94
2023-05-08T16:24:36.893Z,95791.34
2023-05-08T16:27:03.803Z,95780.03
2023-05-08T16:29:30.335Z,95786.00
2023-05-08T16:31:57.029Z,95782.94
2023-05-08T16:34:23.711Z,95790.09
2023-05-08T16:36:50.332Z,95785.47
2023-05-08T16:39:16.991Z,95787.50
2023-05-08T16:41:43.807Z,95785.16
2023-05-08T16:44:10.405Z,95786.75
2023-05-08T16:46:37.050Z,95790.66
2023-05-08T16:49:03.704Z,95791.84
2023-05-08T16:51:30.235Z,95801.66
2023-05-08T16:53:57.990Z,95788.19
2023-05-08T16:56:25.035Z,95779.03
2023-05-08T16:58:51.577Z,95782.47
2023-05-08T17:01:18.282Z,95786.28
2023-05-08T17:03:44.958Z,95792.03
2023-05-08T17:06:11.824Z,95791.94
2023-05-08T17:08:38.491Z,95797.69
2023-05-08T17:11:05.085Z,95799.03
2023-05-08T17:13:31.767Z,95791.28
2023-05-08T17:15:58.650Z,95795.81
2023-05-08T17:18:25.546Z,95806.25
2023-05-08T17:20:52.323Z,95798.16
2023-05-08T17:23:18.954Z,95797.25
2023-05-08T17:25:45.592Z,95804.56
2023-05-08T17:28:12.229Z,95810.28
2023-05-08T17:30:39.744Z,95801.91
2023-05-08T17:33:06.434Z,95810.31
2023-05-08T17:35:33.201Z,95809.81
2023-05-08T17:37:59.779Z,95812.75
2023-05-08T17:40:26.373Z,95821.31
2023-05-08T17:42:52.990Z,95825.84
2023-05-08T17:45:19.606Z,95822.94
2023-05-08T17:47:46.559Z,95818.53
2023-05-08T17:50:13.337Z,95821.47
2023-05-08T17:52:40.145Z,95826.81
2023-05-08T17:55:07.657Z,95830.50
2023-05-08T17:57:34.451Z,95833.09
2023-05-08T18:00:01.144Z,95825.94
2023-05-08T18:02:27.751Z,95830.88
2023-05-08T18:04:54.429Z,95837.78
2023-05-08T18:07:21.021Z,95833.34
2023-05-08T18:09:47.755Z,95837.94
2023-05-08T18:12:14.335Z,95841.41
2023-05-08T18:14:40.980Z,95848.38
2023-05-08T18:17:07.536Z,95849.91
2023-05-08T18:19:34.220Z,95844.34
2023-05-08T18:22:00.949Z,95846.63
2023-05-08T18:24:29.151Z,95849.72
2023-05-08T18:26:55.638Z,95852.22
2023-05-08T18:29:22.189Z,95850.78
2023-05-08T18:31:48.852Z,95842.53
2023-05-08T18:34:15.428Z,95846.44
2023-05-08T18:36:41.996Z,95842.81
2023-05-08T18:39:08.567Z,95851.75
2023-05-08T18:41:35.226Z,95857.16
2023-05-08T18:44:02.124Z,95860.94
2023-05-08T18:46:28.712Z,95858.09
2023-05-08T18:48:55.358Z,95861.91
2023-05-08T18:51:21.985Z,95862.16
2023-05-08T18:53:48.587Z,95866.75
2023-05-08T18:56:15.173Z,95864.25
2023-05-08T18:58:41.781Z,95865.31
2023-05-08T19:01:08.388Z,95860.50
2023-05-08T19:03:35.062Z,95863.16
2023-05-08T19:06:01.998Z,95866.16
2023-05-08T19:08:28.752Z,95870.38
2023-05-08T19:10:55.308Z,95873.38
2023-05-08T19:13:21.959Z,95874.06
2023-05-08T19:15:48.761Z,95870.38
2023-05-08T19:18:15.333Z,95869.16
2023-05-08T19:20:42.037Z,95869.84
2023-05-08T19:23:08.973Z,95870.53
2023-05-08T19:25:38.414Z,95868.50
2023-05-08T19:28:05.220Z,95873.50
2023-05-08T19:30:31.841Z,95874.19
2023-05-08T19:32:58.408Z,95866.69
2023-05-08T19:35:25.174Z,95872.38
2023-05-08T19:37:51.759Z,95866.47
2023-05-08T19:40:18.480Z,95875.72
2023-05-08T19:42:45.060Z,95871.72
2023-05-08T19:45:12.907Z,95872.44
2023-05-08T19:47:39.547Z,95877.44
2023-05-08T19:50:06.774Z,95876.19
2023-05-08T19:52:33.404Z,95872.19
2023-05-08T19:54:59.966Z,95867.41
2023-05-08T19:57:26.866Z,95873.22
2023-05-08T19:59:53.429Z,95872.00
2023-05-08T20:02:19.984Z,95881.69
2023-05-08T20:05:18.194Z,95873.38
2023-05-08T20:07:33.143Z,95868.56
2023-05-08T20:09:59.752Z,95855.56
2023-05-08T20:12:26.600Z,95858.53
2023-05-08T20:14:53.264Z,95870.19
2023-05-08T20:17:19.937Z,95870.38
2023-05-08T20:19:46.515Z,95864.69
2023-05-08T20:22:13.103Z,95875.53
2023-05-08T20:24:39.697Z,95873.00
2023-05-08T20:27:06.318Z,95869.69
2023-05-08T20:29:32.956Z,95865.22
2023-05-08T20:31:59.683Z,95868.97
2023-05-08T20:34:26.447Z,95864.19
2023-05-08T20:36:53.032Z,95857.44
2023-05-08T20:39:20.084Z,95860.06
2023-05-08T20:41:46.641Z,95859.59
2023-05-08T20:44:13.272Z,95857.22
2023-05-08T20:46:39.954Z,95851.63
2023-05-08T20:49:06.577Z,95856.63
2023-05-08T20:51:33.140Z,95858.13
2023-05-08T20:53:59.936Z,95863.09
2023-05-08T20:56:26.532Z,95855.25
2023-05-08T20:58:53.201Z,95858.31
2023-05-08T21:01:21.062Z,95855.91
2023-05-08T21:03:47.901Z,95857.16
2023-05-08T21:06:14.589Z,95853.41
2023-05-08T21:08:41.187Z,95852.59
2023-05-08T21:11:07.823Z,95846.19
2023-05-08T21:13:34.528Z,95851.22
2023-05-08T21:16:01.147Z,95849.16
2023-05-08T21:18:27.802Z,95840.84
2023-05-08T21:20:54.432Z,95843.13
2023-05-08T21:23:21.062Z,95842.31
2023-05-08T21:25:50.690Z,95839.13
2023-05-08T21:28:17.562Z,95839.44
2023-05-08T21:30:44.867Z,95842.84
2023-05-08T21:33:12.238Z,95834.19
2023-05-08T21:35:42.031Z,95843.53
2023-05-08T21:38:09.478Z,95828.25
2023-05-08T21:40:36.139Z,95827.47
2023-05-08T21:43:02.767Z,95835.22
2023-05-08T21:45:31.087Z,95828.94
2023-05-08T21:47:58.763Z,95825.72
2023-05-08T21:50:25.974Z,95830.75
2023-05-08T21:52:52.675Z,95831.88
2023-05-08T21:55:19.989Z,95834.16
2023-05-08T21:57:46.535Z,95832.88
2023-05-08T22:00:13.774Z,95827.75
2023-05-08T22:02:46.337Z,95824.56
2023-05-08T22:05:13.320Z,95815.91
2023-05-08T22:07:40.088Z,95813.50
2023-05-08T22:10:07.420Z,95814.97
2023-05-08T22:12:34.009Z,95820.31
2023-05-08T22:15:00.774Z,95820.19
2023-05-08T22:17:27.577Z,95816.19
2023-05-08T22:19:54.137Z,95813.34
2023-05-08T22:22:20.874Z,95807.41
2023-05-08T22:24:47.472Z,95805.66
2023-05-08T22:27:14.039Z,95810.19
2023-05-08T22:29:40.773Z,95807.66
2023-05-08T22:32:07.530Z,95804.31
2023-05-08T22:34:34.290Z,95806.47
2023-05-08T22:37:01.003Z,95805.41
2023-05-08T22:39:27.787Z,95808.34
2023-05-08T22:41:54.722Z,95805.66
2023-05-08T22:44:21.661Z,95811.66
2023-05-08T22:46:48.300Z,95810.91
2023-05-08T22:49:15.071Z,95810.63
2023-05-08T22:51:41.766Z,95810.69
2023-05-08T22:54:08.357Z,95806.41
2023-05-08T22:56:35.050Z,95802.25
2023-05-08T22:59:01.763Z,95805.84
2023-05-08T23:01:28.336Z,95804.41
2023-05-08T23:03:55.069Z,95799.16
2023-05-08T23:06:21.695Z,95797.38
2023-05-08T23:08:48.369Z,95804.94
2023-05-08T23:11:15.462Z,95795.81
2023-05-08T23:13:42.144Z,95797.13
2023-05-08T23:16:08.707Z,95797.31
2023-05-08T23:18:35.346Z,95790.91
2023-05-08T23:21:06.591Z,95796.84
2023-05-08T23:23:33.662Z,95788.03
2023-05-08T23:26:00.712Z,95784.72
2023-05-08T23:28:27.589Z,95789.53
2023-05-08T23:30:54.320Z,95791.31
2023-05-08T23:33:21.092Z,95785.22
2023-05-08T23:35:47.690Z,95778.00
2023-05-08T23:38:14.432Z,95778.97
2023-05-08T23:40:41.015Z,95776.13
2023-05-08T23:43:07.746Z,95772.41
2023-05-08T23:45:34.300Z,95777.25
2023-05-08T23:48:00.891Z,95770.84
2023-05-08T23:50:27.633Z,95774.84
2023-05-08T23:52:54.284Z,95768.78
2023-05-08T23:55:22.374Z,95775.19
2023-05-08T23:57:49.058Z,95765.91
